Decorah, Iowa
Current Conditions -  °F | °C
As of 7:55 PM on Saturday 22 Nov 2014 (Local Time) from KDEH Reporting Station
Haze Haze  
Wind Chill: 43°   Ceiling: 400
Heat Index: 46°   Visibility: 3mi
Dew Point: 46°   Wind: 7mph
Humidity: 100%   Direction: 190°S
Pressure: 29.67"   Gusts: 13mph
Location:  43.3°N, 91.79°W
Report Text: KDEH 230155Z AUTO 19006G11KT 3SM BR OVC004 08/08 A2967 RMK AO2
Loading
Personal Weather Stations






























Interactive Weather Map New forecast layout! Learn more

10-Day Weather Forecast

Advertisements
Track Severe Weather on mobile